Citadel — PBOK — position and weather

sailwx.info

Track history (hours):
 
Tides and Currents Weather Stations Pressure Air Temp Water Temp Dewpoint Dewpoint Depression Visibility Wind Speed Wind Dir Waves Ship Positions

Citadel

Last reported at 2016-Feb-12 21:33 UTC. Time now 2016-Feb-13 13:00 UTC.
Position N 50°27' W 001°54'.

Length 111 m; draft 4.8 m.

Type: Cargo ship. MMSI: 245977000.

Date/timePositionNaut miles runAvg speedWind from/ knotsBaromVisibWave heightAir tempDewpointWater temp
2016-Feb-12 21:33N 50°27' W 001°54'10 9.0
2016-Feb-12 20:29N 50°29' W 001°39'1011.0
2016-Feb-12 19:33N 50°32' W 001°23'1312.7
2016-Feb-12 18:33N 50°37' W 001°05'8 8.1
2016-Feb-12 17:33N 50°45' W 001°05'1110.7
2016-Feb-12 16:33N 50°51' W 001°20'6 5.5
2016-Feb-12 15:32N 50°54' W 001°26'0 0.0
2016-Feb-12 14:28N 50°54' W 001°26'0 0.0
2016-Feb-12 13:33N 50°54' W 001°26'0 0.0
2016-Feb-12 12:33N 50°54' W 001°26'0 0.0
2016-Feb-12 11:33N 50°54' W 001°26'0 0.0
2016-Feb-12 07:27N 50°54' W 001°26'0 0.0
2016-Feb-12 03:31N 50°54' W 001°26'0 0.0
2016-Feb-12 01:06N 50°54' W 001°26'0 0.0
2016-Feb-12 00:30N 50°54' W 001°26'0 0.0
2016-Feb-11 23:30N 50°54' W 001°26'0 0.0
2016-Feb-11 22:23N 50°54' W 001°26'0 0.0
2016-Feb-11 18:30N 50°54' W 001°26'0 0.0
2016-Feb-11 17:27N 50°54' W 001°26'0 0.0
2016-Feb-11 12:25N 50°54' W 001°26'0 0.0
2016-Feb-11 11:30N 50°54' W 001°26'0 0.0
2016-Feb-11 10:30N 50°54' W 001°26'0 0.0
2016-Feb-11 09:29N 50°54' W 001°26'0 0.1
2016-Feb-11 08:33N 50°54' W 001°26'7 7.3
2016-Feb-11 07:34N 50°49' W 001°18'8 7.6
2016-Feb-11 06:33N 50°45' W 001°08'3 3.5
2016-Feb-11 05:33N 50°43' W 001°03'0 0.0
2016-Feb-11 04:33N 50°43' W 001°03'0 0.0
2016-Feb-11 03:32N 50°43' W 001°04'0 0.1
2016-Feb-11 02:32N 50°43' W 001°04'0 0.0
2016-Feb-11 01:31N 50°43' W 001°04'0 0.1
2016-Feb-11 00:31N 50°43' W 001°04'0 0.0
2016-Feb-10 23:31N 50°43' W 001°04'0 0.1
2016-Feb-10 22:33N 50°43' W 001°04'0 0.1
2016-Feb-10 21:33N 50°43' W 001°03'0 0.0
2016-Feb-10 20:32N 50°43' W 001°03'0 0.0
2016-Feb-10 19:30N 50°43' W 001°03'0 0.0
2016-Feb-10 18:31N 50°43' W 001°03'0 0.0
2016-Feb-10 17:31N 50°43' W 001°03'0 0.0
2016-Feb-10 16:34N 50°43' W 001°03'0 0.0
2016-Feb-10 15:33N 50°43' W 001°03'0 0.1
2016-Feb-10 13:32N 50°43' W 001°04'0 0.1
2016-Feb-10 12:32N 50°43' W 001°04'0 0.1
2016-Feb-10 11:31N 50°43' W 001°04'0 0.1
2016-Feb-10 10:31N 50°43' W 001°03'0 0.1
2016-Feb-10 09:31N 50°43' W 001°03'0 0.0
2016-Feb-10 08:33N 50°43' W 001°03'0 0.0
2016-Feb-10 07:33N 50°43' W 001°03'0 0.0
2016-Feb-10 06:32N 50°43' W 001°03'0 0.0
2016-Feb-10 05:32N 50°43' W 001°03'0 0.1
2016-Feb-10 04:31N 50°43' W 001°03'0 0.0
2016-Feb-10 03:28N 50°43' W 001°03'0 0.1
2016-Feb-10 02:33N 50°43' W 001°03'0 0.1
2016-Feb-10 01:33N 50°43' W 001°03'0 0.1
2016-Feb-10 00:33N 50°43' W 001°03'0 0.1
2016-Feb-09 23:32N 50°43' W 001°04'0 0.0
2016-Feb-09 22:33N 50°43' W 001°04'0 0.1
2016-Feb-09 21:31N 50°43' W 001°03'0 0.1
2016-Feb-09 20:33N 50°43' W 001°03'0 0.0
2016-Feb-09 19:33N 50°43' W 001°03'0 0.0
2016-Feb-09 18:32N 50°43' W 001°03'0 0.0
2016-Feb-09 17:32N 50°43' W 001°03'0 0.0
2016-Feb-09 16:32N 50°43' W 001°03'0 0.0
2016-Feb-09 15:31N 50°43' W 001°03'0 0.0
2016-Feb-09 14:31N 50°43' W 001°03'0 0.1
2016-Feb-09 13:33N 50°43' W 001°04'0 0.1
2016-Feb-09 12:33N 50°43' W 001°04'0 0.1
2016-Feb-09 11:32N 50°43' W 001°03'0 0.1
2016-Feb-09 10:32N 50°43' W 001°04'0 0.1
2016-Feb-09 09:31N 50°43' W 001°03'0 0.1
2016-Feb-09 08:31N 50°43' W 001°03'0 0.1
2016-Feb-09 07:34N 50°43' W 001°03'5 4.9
2016-Feb-09 06:33N 50°39' W 000°59'7 6.7
2016-Feb-09 05:34N 50°35' W 001°06'4 4.4
2016-Feb-09 04:33N 50°32' W 001°11'5 4.2
2016-Feb-09 03:20N 50°29' W 001°19'  
2016-Feb-05 22:25N 41°59' W 009°48'1011.1
2016-Feb-05 21:31N 41°50' W 009°48'9 9.6
2016-Feb-05 20:32N 41°40' W 009°48'1111.3
2016-Feb-05 19:31N 41°29' W 009°49'1110.8
2016-Feb-05 18:31N 41°18' W 009°49'1111.1
2016-Feb-05 17:31N 41°07' W 009°49'1111.2
2016-Feb-05 16:31N 40°55' W 009°49'1110.1
2016-Feb-05 15:28N 40°45' W 009°49'1010.6
2016-Feb-05 14:31N 40°35' W 009°50'3210.6
2016-Feb-05 11:28N 40°03' W 009°50'1110.9
2016-Feb-05 10:28N 39°52' W 009°50'1010.5
2016-Feb-05 09:32N 39°42' W 009°50'1010.0
2016-Feb-05 08:33N 39°32' W 009°50'1211.4
2016-Feb-05 07:32N 39°20' W 009°51'9 9.4
2016-Feb-05 06:33N 39°11' W 009°50'1010.1
2016-Feb-05 05:34N 39°01' W 009°51'1010.2
2016-Feb-05 04:33N 38°51' W 009°51'1010.2
2016-Feb-05 03:33N 38°41' W 009°51'1010.3
2016-Feb-05 02:33N 38°31' W 009°47'1110.6
2016-Feb-05 01:33N 38°20' W 009°45'1110.5
2016-Feb-05 00:30N 38°10' W 009°41'1010.4
2016-Feb-04 23:33N 37°60' W 009°38'1110.5
2016-Feb-04 22:33N 37°50' W 009°35'1010.3
2016-Feb-04 21:33N 37°40' W 009°32'1010.3
2016-Feb-04 20:33N 37°30' W 009°29'1211.0
2016-Feb-04 19:28N 37°18' W 009°26'1410.1
2016-Feb-04 18:08N 37°05' W 009°22'610.3
2016-Feb-04 17:31N 36°59' W 009°20'9 9.0
2016-Feb-04 16:28N 36°50' W 009°15'10 9.9
2016-Feb-04 15:28N 36°44' W 009°05'9 9.5
2016-Feb-04 14:32N 36°42' W 008°54'1110.8
2016-Feb-04 13:31N 36°39' W 008°41'1510.8
2016-Feb-04 12:07N 36°34' W 008°23'610.6
2016-Feb-04 11:31N 36°33' W 008°15'12910.4
2016-Feb-03 23:07N 35°58' W 005°41'5 9.1
2016-Feb-03 22:33N 35°59' W 005°35'9 8.9
2016-Feb-03 21:33N 35°60' W 005°24'7 6.7
2016-Feb-03 20:33N 35°54' W 005°19'0 0.0
2016-Feb-03 19:33N 35°54' W 005°19'0 0.0
2016-Feb-03 18:33N 35°54' W 005°19'0 0.0
2016-Feb-03 17:33N 35°54' W 005°19'0 0.0
2016-Feb-03 16:33N 35°54' W 005°19'0 0.0
2016-Feb-03 15:33N 35°54' W 005°19'5 4.7
2016-Feb-03 14:33N 35°56' W 005°14'  
Track history (hours):
 
Tides and Currents Weather Stations Pressure Air Temp Water Temp Dewpoint Dewpoint Depression Visibility Wind Speed Wind Dir Waves Ship Positions

Citadel

Last reported at 2016-Feb-12 21:33 UTC. Time now 2016-Feb-13 13:00 UTC.
Position N 50°27' W 001°54'.

Length 111 m; draft 4.8 m.

Type: Cargo ship. MMSI: 245977000.

Date/timePositionNaut miles runAvg speedWind from/ knotsBaromVisibWave heightAir tempDewpointWater temp
2016-Feb-12 21:33N 50°27' W 001°54'10 9.0
2016-Feb-12 20:29N 50°29' W 001°39'1011.0
2016-Feb-12 19:33N 50°32' W 001°23'1312.7
2016-Feb-12 18:33N 50°37' W 001°05'8 8.1
2016-Feb-12 17:33N 50°45' W 001°05'1110.7
2016-Feb-12 16:33N 50°51' W 001°20'6 5.5
2016-Feb-12 15:32N 50°54' W 001°26'0 0.0
2016-Feb-12 14:28N 50°54' W 001°26'0 0.0
2016-Feb-12 13:33N 50°54' W 001°26'0 0.0
2016-Feb-12 12:33N 50°54' W 001°26'0 0.0
2016-Feb-12 11:33N 50°54' W 001°26'0 0.0
2016-Feb-12 07:27N 50°54' W 001°26'0 0.0
2016-Feb-12 03:31N 50°54' W 001°26'0 0.0
2016-Feb-12 01:06N 50°54' W 001°26'0 0.0
2016-Feb-12 00:30N 50°54' W 001°26'0 0.0
2016-Feb-11 23:30N 50°54' W 001°26'0 0.0
2016-Feb-11 22:23N 50°54' W 001°26'0 0.0
2016-Feb-11 18:30N 50°54' W 001°26'0 0.0
2016-Feb-11 17:27N 50°54' W 001°26'0 0.0
2016-Feb-11 12:25N 50°54' W 001°26'0 0.0
2016-Feb-11 11:30N 50°54' W 001°26'0 0.0
2016-Feb-11 10:30N 50°54' W 001°26'0 0.0
2016-Feb-11 09:29N 50°54' W 001°26'0 0.1
2016-Feb-11 08:33N 50°54' W 001°26'7 7.3
2016-Feb-11 07:34N 50°49' W 001°18'8 7.6
2016-Feb-11 06:33N 50°45' W 001°08'3 3.5
2016-Feb-11 05:33N 50°43' W 001°03'0 0.0
2016-Feb-11 04:33N 50°43' W 001°03'0 0.0
2016-Feb-11 03:32N 50°43' W 001°04'0 0.1
2016-Feb-11 02:32N 50°43' W 001°04'0 0.0
2016-Feb-11 01:31N 50°43' W 001°04'0 0.1
2016-Feb-11 00:31N 50°43' W 001°04'0 0.0
2016-Feb-10 23:31N 50°43' W 001°04'0 0.1
2016-Feb-10 22:33N 50°43' W 001°04'0 0.1
2016-Feb-10 21:33N 50°43' W 001°03'0 0.0
2016-Feb-10 20:32N 50°43' W 001°03'0 0.0
2016-Feb-10 19:30N 50°43' W 001°03'0 0.0
2016-Feb-10 18:31N 50°43' W 001°03'0 0.0
2016-Feb-10 17:31N 50°43' W 001°03'0 0.0
2016-Feb-10 16:34N 50°43' W 001°03'0 0.0
2016-Feb-10 15:33N 50°43' W 001°03'0 0.1
2016-Feb-10 13:32N 50°43' W 001°04'0 0.1
2016-Feb-10 12:32N 50°43' W 001°04'0 0.1
2016-Feb-10 11:31N 50°43' W 001°04'0 0.1
2016-Feb-10 10:31N 50°43' W 001°03'0 0.1
2016-Feb-10 09:31N 50°43' W 001°03'0 0.0
2016-Feb-10 08:33N 50°43' W 001°03'0 0.0
2016-Feb-10 07:33N 50°43' W 001°03'0 0.0
2016-Feb-10 06:32N 50°43' W 001°03'0 0.0
2016-Feb-10 05:32N 50°43' W 001°03'0 0.1
2016-Feb-10 04:31N 50°43' W 001°03'0 0.0
2016-Feb-10 03:28N 50°43' W 001°03'0 0.1
2016-Feb-10 02:33N 50°43' W 001°03'0 0.1
2016-Feb-10 01:33N 50°43' W 001°03'0 0.1
2016-Feb-10 00:33N 50°43' W 001°03'0 0.1
2016-Feb-09 23:32N 50°43' W 001°04'0 0.0
2016-Feb-09 22:33N 50°43' W 001°04'0 0.1
2016-Feb-09 21:31N 50°43' W 001°03'0 0.1
2016-Feb-09 20:33N 50°43' W 001°03'0 0.0
2016-Feb-09 19:33N 50°43' W 001°03'0 0.0
2016-Feb-09 18:32N 50°43' W 001°03'0 0.0
2016-Feb-09 17:32N 50°43' W 001°03'0 0.0
2016-Feb-09 16:32N 50°43' W 001°03'0 0.0
2016-Feb-09 15:31N 50°43' W 001°03'0 0.0
2016-Feb-09 14:31N 50°43' W 001°03'0 0.1
2016-Feb-09 13:33N 50°43' W 001°04'0 0.1
2016-Feb-09 12:33N 50°43' W 001°04'0 0.1
2016-Feb-09 11:32N 50°43' W 001°03'0 0.1
2016-Feb-09 10:32N 50°43' W 001°04'0 0.1
2016-Feb-09 09:31N 50°43' W 001°03'0 0.1
2016-Feb-09 08:31N 50°43' W 001°03'0 0.1
2016-Feb-09 07:34N 50°43' W 001°03'5 4.9
2016-Feb-09 06:33N 50°39' W 000°59'7 6.7
2016-Feb-09 05:34N 50°35' W 001°06'4 4.4
2016-Feb-09 04:33N 50°32' W 001°11'5 4.2
2016-Feb-09 03:20N 50°29' W 001°19'  
2016-Feb-05 22:25N 41°59' W 009°48'1011.1
2016-Feb-05 21:31N 41°50' W 009°48'9 9.6
2016-Feb-05 20:32N 41°40' W 009°48'1111.3
2016-Feb-05 19:31N 41°29' W 009°49'1110.8
2016-Feb-05 18:31N 41°18' W 009°49'1111.1
2016-Feb-05 17:31N 41°07' W 009°49'1111.2
2016-Feb-05 16:31N 40°55' W 009°49'1110.1
2016-Feb-05 15:28N 40°45' W 009°49'1010.6
2016-Feb-05 14:31N 40°35' W 009°50'3210.6
2016-Feb-05 11:28N 40°03' W 009°50'1110.9
2016-Feb-05 10:28N 39°52' W 009°50'1010.5
2016-Feb-05 09:32N 39°42' W 009°50'1010.0
2016-Feb-05 08:33N 39°32' W 009°50'1211.4
2016-Feb-05 07:32N 39°20' W 009°51'9 9.4
2016-Feb-05 06:33N 39°11' W 009°50'1010.1
2016-Feb-05 05:34N 39°01' W 009°51'1010.2
2016-Feb-05 04:33N 38°51' W 009°51'1010.2
2016-Feb-05 03:33N 38°41' W 009°51'1010.3
2016-Feb-05 02:33N 38°31' W 009°47'1110.6
2016-Feb-05 01:33N 38°20' W 009°45'1110.5
2016-Feb-05 00:30N 38°10' W 009°41'1010.4
2016-Feb-04 23:33N 37°60' W 009°38'1110.5
2016-Feb-04 22:33N 37°50' W 009°35'1010.3
2016-Feb-04 21:33N 37°40' W 009°32'1010.3
2016-Feb-04 20:33N 37°30' W 009°29'1211.0
2016-Feb-04 19:28N 37°18' W 009°26'1410.1
2016-Feb-04 18:08N 37°05' W 009°22'610.3
2016-Feb-04 17:31N 36°59' W 009°20'9 9.0
2016-Feb-04 16:28N 36°50' W 009°15'10 9.9
2016-Feb-04 15:28N 36°44' W 009°05'9 9.5
2016-Feb-04 14:32N 36°42' W 008°54'1110.8
2016-Feb-04 13:31N 36°39' W 008°41'1510.8
2016-Feb-04 12:07N 36°34' W 008°23'610.6
2016-Feb-04 11:31N 36°33' W 008°15'12910.4
2016-Feb-03 23:07N 35°58' W 005°41'5 9.1
2016-Feb-03 22:33N 35°59' W 005°35'9 8.9
2016-Feb-03 21:33N 35°60' W 005°24'7 6.7
2016-Feb-03 20:33N 35°54' W 005°19'0 0.0
2016-Feb-03 19:33N 35°54' W 005°19'0 0.0
2016-Feb-03 18:33N 35°54' W 005°19'0 0.0
2016-Feb-03 17:33N 35°54' W 005°19'0 0.0
2016-Feb-03 16:33N 35°54' W 005°19'0 0.0
2016-Feb-03 15:33N 35°54' W 005°19'5 4.7
2016-Feb-03 14:33N 35°56' W 005°14'  

Dump ship's entire track history